createdAt,value
2019-01-19T00:01:59.558Z,12.47
2019-01-19T00:04:44.233Z,12.70
2019-01-19T00:07:25.805Z,14.30
2019-01-19T00:10:20.771Z,14.23
2019-01-19T00:12:59.107Z,14.37
2019-01-19T00:15:34.621Z,14.53
2019-01-19T00:18:25.161Z,14.03
2019-01-19T00:21:00.797Z,13.53
2019-01-19T00:23:33.466Z,12.73
2019-01-19T00:26:25.511Z,13.47
2019-01-19T00:29:10.366Z,13.03
2019-01-19T00:31:45.634Z,13.03
2019-01-19T00:34:34.138Z,12.47
2019-01-19T00:37:07.045Z,14.07
2019-01-19T00:40:05.298Z,14.07
2019-01-19T00:42:41.078Z,12.40
2019-01-19T00:45:19.872Z,14.27
2019-01-19T00:47:55.242Z,14.77
2019-01-19T00:50:27.957Z,14.43
2019-01-19T00:53:03.298Z,13.60
2019-01-19T00:55:44.871Z,14.23
2019-01-19T00:58:29.135Z,13.20
2019-01-19T01:01:01.830Z,13.63
2019-01-19T01:03:34.573Z,13.07
2019-01-19T01:06:09.947Z,14.10
2019-01-19T01:09:00.439Z,12.63
2019-01-19T01:11:35.820Z,12.53
2019-01-19T01:14:14.304Z,13.80
2019-01-19T01:16:55.572Z,12.37
2019-01-19T01:19:34.053Z,13.67
2019-01-19T01:22:09.447Z,13.23
2019-01-19T01:24:44.806Z,12.03
2019-01-19T01:27:20.389Z,13.23
2019-01-19T01:30:13.739Z,12.03
2019-01-19T01:33:01.121Z,12.30
2019-01-19T01:35:57.466Z,13.23
2019-01-19T01:38:41.835Z,12.07
2019-01-19T01:41:37.625Z,11.93
2019-01-19T01:44:35.442Z,12.37
2019-01-19T01:47:31.918Z,13.07
2019-01-19T01:50:10.407Z,13.93
2019-01-19T01:52:51.909Z,12.57
2019-01-19T01:55:24.585Z,13.20
2019-01-19T01:57:57.279Z,12.77
2019-01-19T02:00:38.651Z,12.13
2019-01-19T02:03:35.359Z,11.80
2019-01-19T02:06:16.894Z,13.03
2019-01-19T02:08:58.513Z,13.00
2019-01-19T02:11:33.812Z,12.83
2019-01-19T02:14:21.376Z,13.97
2019-01-19T02:17:05.619Z,12.70
2019-01-19T02:19:55.906Z,12.73
2019-01-19T02:22:43.577Z,12.53
2019-01-19T02:25:18.826Z,13.23
2019-01-19T02:28:10.764Z,13.23
2019-01-19T02:30:43.520Z,13.37
2019-01-19T02:33:34.236Z,12.10
2019-01-19T02:36:06.952Z,11.90
2019-01-19T02:38:45.170Z,12.40
2019-01-19T02:41:29.386Z,13.33
2019-01-19T02:44:13.954Z,12.90
2019-01-19T02:47:16.357Z,13.97
2019-01-19T02:50:08.538Z,13.50
2019-01-19T02:52:44.070Z,13.37
2019-01-19T02:55:31.497Z,15.20
2019-01-19T02:58:26.620Z,14.83
2019-01-19T03:01:23.173Z,14.30
2019-01-19T03:04:07.657Z,14.40
2019-01-19T03:06:56.523Z,15.07
2019-01-19T03:09:37.733Z,13.63
2019-01-19T03:12:13.357Z,13.43
2019-01-19T03:15:00.891Z,13.90
2019-01-19T03:17:57.347Z,13.90
2019-01-19T03:20:38.444Z,13.53
2019-01-19T03:23:31.721Z,13.23
2019-01-19T03:26:04.403Z,15.07
2019-01-19T03:28:45.651Z,15.53
2019-01-19T03:31:33.235Z,14.63
2019-01-19T03:34:08.792Z,15.80
2019-01-19T03:37:08.554Z,14.40
2019-01-19T03:40:14.320Z,16.20
2019-01-19T03:43:10.888Z,15.23
2019-01-19T03:46:02.638Z,16.67
2019-01-19T03:48:51.853Z,13.60
2019-01-19T03:51:45.359Z,14.97
2019-01-19T03:54:20.815Z,15.90
2019-01-19T03:56:53.426Z,15.80
2019-01-19T03:59:44.719Z,14.57
2019-01-19T04:02:34.977Z,15.10
2019-01-19T04:05:28.290Z,15.17
2019-01-19T04:08:17.113Z,14.13
2019-01-19T04:10:52.386Z,16.83
2019-01-19T04:13:36.303Z,15.07
2019-01-19T04:16:08.987Z,15.63
2019-01-19T04:18:50.788Z,14.17
2019-01-19T04:21:26.331Z,14.33
2019-01-19T04:23:58.964Z,13.93
2019-01-19T04:26:31.456Z,13.43
2019-01-19T04:29:01.153Z,13.70
2019-01-19T04:31:30.944Z,13.97
2019-01-19T04:34:01.079Z,12.43
2019-01-19T04:36:31.144Z,13.23
2019-01-19T04:39:01.733Z,12.47
2019-01-19T04:41:31.426Z,12.17
2019-01-19T04:44:01.190Z,11.80
2019-01-19T04:46:30.934Z,11.80
2019-01-19T04:49:00.706Z,12.97
2019-01-19T04:51:30.482Z,10.90
2019-01-19T04:54:00.094Z,12.07
2019-01-19T04:56:29.854Z,11.60
2019-01-19T04:58:59.761Z,11.80
2019-01-19T05:01:29.514Z,11.17
2019-01-19T05:03:59.201Z,11.63
2019-01-19T05:06:30.545Z,12.10
2019-01-19T05:09:00.629Z,11.47
2019-01-19T05:11:30.306Z,11.70
2019-01-19T05:14:00.060Z,11.77
2019-01-19T05:16:29.923Z,11.73
2019-01-19T05:18:59.648Z,11.30
2019-01-19T05:21:29.415Z,11.73
2019-01-19T05:23:59.370Z,12.33
2019-01-19T05:26:29.166Z,12.60
2019-01-19T05:28:58.867Z,13.10
2019-01-19T05:31:28.650Z,12.63
2019-01-19T05:33:58.407Z,11.63
2019-01-19T05:36:28.174Z,12.87
2019-01-19T05:38:57.870Z,12.50
2019-01-19T05:41:27.660Z,13.07
2019-01-19T05:43:57.377Z,12.80
2019-01-19T05:46:27.045Z,12.63
2019-01-19T05:48:56.833Z,14.33
2019-01-19T05:51:26.568Z,13.30
2019-01-19T05:53:56.249Z,13.37
2019-01-19T05:56:26.013Z,12.53
2019-01-19T05:58:55.746Z,13.30
2019-01-19T06:01:26.001Z,12.30
2019-01-19T06:03:55.678Z,12.00
2019-01-19T06:06:25.475Z,12.70
2019-01-19T06:08:55.194Z,12.97
2019-01-19T06:11:24.975Z,12.90
2019-01-19T06:13:54.658Z,13.23
2019-01-19T06:16:24.420Z,12.87
2019-01-19T06:18:54.506Z,11.50
2019-01-19T06:21:25.469Z,10.67
2019-01-19T06:23:55.318Z,9.53
2019-01-19T06:26:25.006Z,11.13
2019-01-19T06:28:54.687Z,11.73
2019-01-19T06:31:24.480Z,11.90
2019-01-19T06:33:54.275Z,12.73
2019-01-19T06:36:24.035Z,12.87
2019-01-19T06:38:53.767Z,12.10
2019-01-19T06:41:23.563Z,11.43
2019-01-19T06:43:53.322Z,12.10
2019-01-19T06:46:23.180Z,12.13
2019-01-19T06:48:52.847Z,11.83
2019-01-19T06:51:22.586Z,10.70
2019-01-19T06:53:52.677Z,11.70
2019-01-19T06:56:22.340Z,12.27
2019-01-19T06:58:51.944Z,12.47
2019-01-19T07:01:21.625Z,13.17
2019-01-19T07:03:51.204Z,14.40
2019-01-19T07:06:20.839Z,11.97
2019-01-19T07:08:50.640Z,13.17
2019-01-19T07:11:20.294Z,12.37
2019-01-19T07:13:50.006Z,12.60
2019-01-19T07:16:19.757Z,13.40
2019-01-19T07:18:49.434Z,14.30
2019-01-19T07:21:19.187Z,16.47
2019-01-19T07:23:49.056Z,16.80
2019-01-19T07:26:18.726Z,17.13
2019-01-19T07:28:48.502Z,17.33
2019-01-19T07:31:18.210Z,18.07
2019-01-19T07:33:47.974Z,16.30
2019-01-19T07:36:17.708Z,15.90
2019-01-19T07:38:47.385Z,14.90
2019-01-19T07:41:16.987Z,15.43
2019-01-19T07:43:46.719Z,15.27
2019-01-19T07:46:16.769Z,14.80
2019-01-19T07:48:46.568Z,15.00
2019-01-19T07:51:16.257Z,15.03
2019-01-19T07:53:45.975Z,15.47
2019-01-19T07:56:15.645Z,15.77
2019-01-19T07:58:45.342Z,15.03
2019-01-19T08:01:15.091Z,14.43
2019-01-19T08:03:44.847Z,14.23
2019-01-19T08:06:14.604Z,13.23
2019-01-19T08:08:44.321Z,12.47
2019-01-19T08:11:14.056Z,12.93
2019-01-19T08:13:43.854Z,13.37
2019-01-19T08:16:13.684Z,13.43
2019-01-19T08:18:43.371Z,12.63
2019-01-19T08:21:13.079Z,10.93
2019-01-19T08:23:42.984Z,10.47
2019-01-19T08:26:12.756Z,10.67
2019-01-19T08:28:42.560Z,10.20
2019-01-19T08:31:12.266Z,11.17
2019-01-19T08:33:41.975Z,9.97
2019-01-19T08:36:12.336Z,12.03
2019-01-19T08:38:42.168Z,10.60
2019-01-19T08:41:12.083Z,10.70
2019-01-19T08:43:43.666Z,11.30
2019-01-19T08:46:16.551Z,12.40
2019-01-19T08:48:46.233Z,12.83
2019-01-19T08:51:16.321Z,12.37
2019-01-19T08:53:46.752Z,12.20
2019-01-19T08:56:16.544Z,11.57
2019-01-19T08:58:47.794Z,10.60
2019-01-19T09:01:17.964Z,10.00
2019-01-19T09:03:47.720Z,10.10
2019-01-19T09:06:22.877Z,9.93
2019-01-19T09:08:52.687Z,10.97
2019-01-19T09:11:22.490Z,11.07
2019-01-19T09:13:52.357Z,10.10
2019-01-19T09:16:22.029Z,10.93
2019-01-19T09:18:51.878Z,10.93
2019-01-19T09:21:21.644Z,10.70
2019-01-19T09:23:53.097Z,10.67
2019-01-19T09:26:23.415Z,10.50
2019-01-19T09:28:57.379Z,9.40
2019-01-19T09:31:31.773Z,10.40
2019-01-19T09:34:01.534Z,10.33
2019-01-19T09:36:31.257Z,10.07
2019-01-19T09:39:00.960Z,10.10
2019-01-19T09:41:30.781Z,9.77
2019-01-19T09:44:00.439Z,9.30
2019-01-19T09:46:30.264Z,8.87
2019-01-19T09:49:00.200Z,9.40
2019-01-19T09:51:29.972Z,8.67
2019-01-19T09:53:59.839Z,7.50
2019-01-19T09:56:29.835Z,7.47
2019-01-19T09:58:59.657Z,7.80
2019-01-19T10:01:29.638Z,6.27
2019-01-19T10:03:59.773Z,6.00
2019-01-19T10:06:29.776Z,7.00
2019-01-19T10:08:59.578Z,6.13
2019-01-19T10:11:29.397Z,5.77
2019-01-19T10:13:59.176Z,6.00
2019-01-19T10:16:28.970Z,6.60
2019-01-19T10:18:58.831Z,5.73
2019-01-19T10:21:29.095Z,5.77
2019-01-19T10:23:59.027Z,5.90
2019-01-19T10:26:28.908Z,5.73
2019-01-19T10:28:58.993Z,5.27
2019-01-19T10:31:28.765Z,5.57
2019-01-19T10:33:58.629Z,5.23
2019-01-19T10:36:28.380Z,5.33
2019-01-19T10:39:02.966Z,5.33
2019-01-19T10:41:32.751Z,5.90
2019-01-19T10:44:02.463Z,5.23
2019-01-19T10:46:32.345Z,5.20
2019-01-19T10:49:02.171Z,6.37
2019-01-19T10:51:31.917Z,4.30
2019-01-19T10:54:01.705Z,4.30
2019-01-19T10:56:31.548Z,3.93
2019-01-19T10:59:01.282Z,3.97
2019-01-19T11:01:31.010Z,4.27
2019-01-19T11:04:00.758Z,3.70
2019-01-19T11:06:30.525Z,2.80
2019-01-19T11:09:01.824Z,2.60
2019-01-19T11:11:31.620Z,2.00
2019-01-19T11:14:01.313Z,2.40
2019-01-19T11:16:32.496Z,2.50
2019-01-19T11:19:03.358Z,2.27
2019-01-19T11:21:34.670Z,2.30
2019-01-19T11:24:05.723Z,2.60
2019-01-19T11:26:38.786Z,1.80
2019-01-19T11:29:08.531Z,2.00
2019-01-19T11:31:39.849Z,2.23
2019-01-19T11:34:09.818Z,2.50
2019-01-19T11:36:39.516Z,2.00
2019-01-19T11:39:09.223Z,2.70
2019-01-19T11:41:38.931Z,2.23
2019-01-19T11:44:08.692Z,2.50
2019-01-19T11:46:38.392Z,2.27
2019-01-19T11:49:08.200Z,2.47
2019-01-19T11:51:37.948Z,2.80
2019-01-19T11:54:08.079Z,3.30
2019-01-19T11:56:37.757Z,2.80
2019-01-19T11:59:07.570Z,2.60
2019-01-19T12:01:37.360Z,2.63
2019-01-19T12:04:07.147Z,1.80
2019-01-19T12:06:36.990Z,2.33
2019-01-19T12:09:07.940Z,2.20
2019-01-19T12:11:40.617Z,2.47
2019-01-19T12:14:12.403Z,2.73
2019-01-19T12:16:45.102Z,2.30
2019-01-19T12:19:17.555Z,2.10
2019-01-19T12:21:47.385Z,2.10
2019-01-19T12:24:17.155Z,2.10
2019-01-19T12:26:49.551Z,2.47
2019-01-19T12:29:19.312Z,2.10
2019-01-19T12:31:49.149Z,2.47
2019-01-19T12:34:19.007Z,2.30
2019-01-19T12:36:48.709Z,2.90
2019-01-19T12:39:18.456Z,2.33
2019-01-19T12:41:48.207Z,3.07
2019-01-19T12:44:17.915Z,2.33
2019-01-19T12:46:47.720Z,2.83
2019-01-19T12:49:17.472Z,1.97
2019-01-19T12:51:47.313Z,2.37
2019-01-19T12:54:18.106Z,2.63
2019-01-19T12:56:47.844Z,2.53
2019-01-19T12:59:17.669Z,2.30
2019-01-19T13:01:47.456Z,2.33
2019-01-19T13:04:17.191Z,2.30
2019-01-19T13:06:47.308Z,2.57
2019-01-19T13:09:17.169Z,2.30
2019-01-19T13:12:01.635Z,2.77
2019-01-19T13:14:32.216Z,2.37
2019-01-19T13:17:14.241Z,2.57
2019-01-19T13:19:46.902Z,2.13
2019-01-19T13:22:30.743Z,2.27
2019-01-19T13:25:18.263Z,2.63
2019-01-19T13:28:05.627Z,2.90
2019-01-19T13:30:44.105Z,2.40
2019-01-19T13:33:45.184Z,2.10
2019-01-19T13:36:20.562Z,2.23
2019-01-19T13:39:14.186Z,2.27
2019-01-19T13:42:13.727Z,1.93
2019-01-19T13:44:55.160Z,2.10
2019-01-19T13:47:39.403Z,2.93
2019-01-19T13:50:17.780Z,2.20
2019-01-19T13:53:11.137Z,2.50
2019-01-19T13:55:49.308Z,2.07
2019-01-19T13:58:30.864Z,2.60
2019-01-19T14:01:32.019Z,2.23
2019-01-19T14:04:13.292Z,2.80
2019-01-19T14:06:51.670Z,2.43
2019-01-19T14:09:30.164Z,2.90
2019-01-19T14:12:14.846Z,3.50
2019-01-19T14:14:53.483Z,2.83
2019-01-19T14:17:41.549Z,3.00
2019-01-19T14:20:42.025Z,2.87
2019-01-19T14:23:17.632Z,2.63
2019-01-19T14:25:55.982Z,3.50
2019-01-19T14:28:58.459Z,3.00
2019-01-19T14:31:33.827Z,2.93
2019-01-19T14:34:06.470Z,2.90
2019-01-19T14:36:57.351Z,3.37
2019-01-19T14:39:47.921Z,3.27
2019-01-19T14:42:29.309Z,3.00
2019-01-19T14:45:06.111Z,3.37
2019-01-19T14:47:48.776Z,2.83
2019-01-19T14:50:45.464Z,2.97
2019-01-19T14:53:48.050Z,2.73
2019-01-19T14:56:29.314Z,3.03
2019-01-19T14:59:05.593Z,2.70
2019-01-19T15:01:49.861Z,3.63
2019-01-19T15:04:51.571Z,2.90
2019-01-19T15:07:51.190Z,3.40
2019-01-19T15:10:32.549Z,2.70
2019-01-19T15:13:11.182Z,3.07
2019-01-19T15:15:50.167Z,3.20
2019-01-19T15:18:54.535Z,3.03
2019-01-19T15:21:30.047Z,3.20
2019-01-19T15:24:05.869Z,2.33
2019-01-19T15:26:38.558Z,3.27
2019-01-19T15:29:25.753Z,3.27
2019-01-19T15:32:04.398Z,3.10
2019-01-19T15:34:46.022Z,2.90
2019-01-19T15:37:27.683Z,2.60
2019-01-19T15:40:18.251Z,3.07
2019-01-19T15:42:56.785Z,2.97
2019-01-19T15:45:45.915Z,2.87
2019-01-19T15:48:24.546Z,3.37
2019-01-19T15:51:30.096Z,3.10
2019-01-19T15:54:18.984Z,3.23
2019-01-19T15:57:03.721Z,3.73
2019-01-19T15:59:53.587Z,3.40
2019-01-19T16:02:34.974Z,4.10
2019-01-19T16:05:10.566Z,3.60
2019-01-19T16:07:49.259Z,4.13
2019-01-19T16:10:54.904Z,3.77
2019-01-19T16:13:45.534Z,3.60
2019-01-19T16:16:27.075Z,3.70
2019-01-19T16:19:19.228Z,4.03
2019-01-19T16:22:09.042Z,4.27
2019-01-19T16:24:50.694Z,3.53
2019-01-19T16:27:29.272Z,3.80
2019-01-19T16:30:02.031Z,4.27
2019-01-19T16:32:37.556Z,4.40
2019-01-19T16:35:31.051Z,4.10
2019-01-19T16:38:18.551Z,5.07
2019-01-19T16:41:18.024Z,5.20
2019-01-19T16:43:53.160Z,4.33
2019-01-19T16:46:44.853Z,4.50
2019-01-19T16:49:34.460Z,4.80
2019-01-19T16:52:09.953Z,4.70
2019-01-19T16:54:48.843Z,4.67
2019-01-19T16:57:43.952Z,5.50
2019-01-19T17:00:41.812Z,5.13
2019-01-19T17:03:14.520Z,5.73
2019-01-19T17:06:16.019Z,5.13
2019-01-19T17:09:00.325Z,6.90
2019-01-19T17:11:33.001Z,5.93
2019-01-19T17:14:11.553Z,6.23
2019-01-19T17:16:52.794Z,6.50
2019-01-19T17:19:25.445Z,6.13
2019-01-19T17:22:09.691Z,6.53
2019-01-19T17:25:00.012Z,7.23
2019-01-19T17:27:50.146Z,6.50
2019-01-19T17:30:34.369Z,6.10
2019-01-19T17:33:09.692Z,6.70
2019-01-19T17:35:44.923Z,6.13
2019-01-19T17:38:38.417Z,6.50
2019-01-19T17:41:35.014Z,5.97
2019-01-19T17:44:19.735Z,7.17
2019-01-19T17:47:13.061Z,6.97
2019-01-19T17:49:45.734Z,7.70
2019-01-19T17:52:21.135Z,7.53
2019-01-19T17:55:08.830Z,7.63
2019-01-19T17:57:44.645Z,7.70
2019-01-19T18:00:34.000Z,8.10
2019-01-19T18:03:06.719Z,7.57
2019-01-19T18:05:42.256Z,7.77
2019-01-19T18:08:33.962Z,8.27
2019-01-19T18:11:24.391Z,8.10
2019-01-19T18:14:22.123Z,10.63
2019-01-19T18:17:11.431Z,8.43
2019-01-19T18:19:52.846Z,8.67
2019-01-19T18:22:37.187Z,8.10
2019-01-19T18:25:21.654Z,8.37
2019-01-19T18:28:11.009Z,8.20
2019-01-19T18:31:00.610Z,8.10
2019-01-19T18:33:39.220Z,8.43
2019-01-19T18:36:31.176Z,8.10
2019-01-19T18:39:21.604Z,8.07
2019-01-19T18:41:57.182Z,7.70
2019-01-19T18:44:56.869Z,8.10
2019-01-19T18:47:32.288Z,7.80
2019-01-19T18:50:27.197Z,8.60
2019-01-19T18:53:05.388Z,8.10
2019-01-19T18:56:10.991Z,8.60
2019-01-19T18:58:43.623Z,9.40
2019-01-19T19:01:28.938Z,11.50
2019-01-19T19:04:13.693Z,9.70
2019-01-19T19:07:05.303Z,11.93
2019-01-19T19:10:01.928Z,10.47
2019-01-19T19:12:31.928Z,9.87
2019-01-19T19:15:28.587Z,9.80
2019-01-19T19:18:16.058Z,9.90
2019-01-19T19:20:57.482Z,9.83
2019-01-19T19:23:35.662Z,9.30
2019-01-19T19:26:08.386Z,9.00
2019-01-19T19:29:04.776Z,9.53
2019-01-19T19:31:37.397Z,10.43
2019-01-19T19:34:32.858Z,10.03
2019-01-19T19:37:08.584Z,9.87
2019-01-19T19:39:43.974Z,9.70
2019-01-19T19:42:28.887Z,9.10
2019-01-19T19:45:16.646Z,8.83
2019-01-19T19:48:04.440Z,8.47
2019-01-19T19:50:56.630Z,8.90
2019-01-19T19:53:26.296Z,9.77
2019-01-19T19:55:54.732Z,8.93
2019-01-19T19:58:24.416Z,9.27
2019-01-19T20:00:54.662Z,10.17
2019-01-19T20:03:24.404Z,9.77
2019-01-19T20:05:54.032Z,9.97
2019-01-19T20:08:23.790Z,10.20
2019-01-19T20:10:53.475Z,11.00
2019-01-19T20:13:23.084Z,10.63
2019-01-19T20:15:52.769Z,10.47
2019-01-19T20:18:22.567Z,11.07
2019-01-19T20:20:52.812Z,10.27
2019-01-19T20:23:22.519Z,10.83
2019-01-19T20:25:52.103Z,9.83
2019-01-19T20:28:21.768Z,10.87
2019-01-19T20:30:51.554Z,9.80
2019-01-19T20:33:21.480Z,10.57
2019-01-19T20:35:51.893Z,9.23
2019-01-19T20:38:22.210Z,10.53
2019-01-19T20:40:52.202Z,10.27
2019-01-19T20:43:21.899Z,8.90
2019-01-19T20:45:51.503Z,10.00
2019-01-19T20:48:21.274Z,10.33
2019-01-19T20:50:50.913Z,9.77
2019-01-19T20:53:21.049Z,10.60
2019-01-19T20:55:51.031Z,9.90
2019-01-19T20:58:20.998Z,10.23
2019-01-19T21:00:50.979Z,9.73
2019-01-19T21:03:20.792Z,9.47
2019-01-19T21:05:50.416Z,9.60
2019-01-19T21:08:20.014Z,9.53
2019-01-19T21:10:49.630Z,9.60
2019-01-19T21:13:19.267Z,10.53
2019-01-19T21:15:49.104Z,11.80
2019-01-19T21:18:18.775Z,11.93
2019-01-19T21:20:48.658Z,11.93
2019-01-19T21:23:18.277Z,11.80
2019-01-19T21:25:47.959Z,11.40
2019-01-19T21:28:17.684Z,12.40
2019-01-19T21:30:47.266Z,13.00
2019-01-19T21:33:16.850Z,13.93
2019-01-19T21:35:46.620Z,13.43
2019-01-19T21:38:16.328Z,12.07
2019-01-19T21:40:45.998Z,13.53
2019-01-19T21:43:15.693Z,13.77
2019-01-19T21:45:45.440Z,12.57
2019-01-19T21:48:15.109Z,13.43
2019-01-19T21:50:44.794Z,12.80
2019-01-19T21:53:14.487Z,12.70
2019-01-19T21:55:44.191Z,12.47
2019-01-19T21:58:13.885Z,12.73
2019-01-19T22:00:43.514Z,13.30
2019-01-19T22:03:13.191Z,13.27
2019-01-19T22:05:49.502Z,12.30
2019-01-19T22:08:14.090Z,13.47
2019-01-19T22:10:46.364Z,13.50
2019-01-19T22:13:15.278Z,13.80
2019-01-19T22:15:44.932Z,14.30
2019-01-19T22:18:14.466Z,15.07
2019-01-19T22:20:44.094Z,14.63
2019-01-19T22:23:13.772Z,16.63
2019-01-19T22:25:43.414Z,15.90
2019-01-19T22:28:13.084Z,16.13
2019-01-19T22:30:42.722Z,16.23
2019-01-19T22:33:13.207Z,16.33
2019-01-19T22:35:42.957Z,16.30
2019-01-19T22:38:12.585Z,17.80
2019-01-19T22:40:42.256Z,16.97
2019-01-19T22:43:11.947Z,18.20
2019-01-19T22:45:41.648Z,18.97
2019-01-19T22:48:11.310Z,18.43
2019-01-19T22:50:41.055Z,18.83
2019-01-19T22:53:10.768Z,20.03
2019-01-19T22:55:40.470Z,17.97
2019-01-19T22:58:10.110Z,18.57
2019-01-19T23:01:02.198Z,19.53
2019-01-19T23:03:32.950Z,17.80
2019-01-19T23:06:02.595Z,20.70
2019-01-19T23:08:32.216Z,20.67
2019-01-19T23:11:01.930Z,21.03
2019-01-19T23:13:31.564Z,20.50
2019-01-19T23:16:01.234Z,21.57
2019-01-19T23:18:30.968Z,19.50
2019-01-19T23:21:00.698Z,21.37
2019-01-19T23:23:30.334Z,20.13
2019-01-19T23:26:01.709Z,20.47
2019-01-19T23:28:31.367Z,21.77
2019-01-19T23:31:01.115Z,19.43
2019-01-19T23:33:30.737Z,22.30
2019-01-19T23:36:00.402Z,21.17
2019-01-19T23:38:30.101Z,22.40
2019-01-19T23:40:59.737Z,22.07
2019-01-19T23:43:29.304Z,23.80
2019-01-19T23:45:59.058Z,21.90
2019-01-19T23:48:28.741Z,21.77
2019-01-19T23:50:58.440Z,24.53
2019-01-19T23:53:28.091Z,22.53
2019-01-19T23:55:57.723Z,22.83
2019-01-19T23:58:27.344Z,22.40
